sensor_id;sensor_type;location;lat;lon;timestamp;pressure;altitude;pressure_sealevel;temperature;humidity
74975;BME280;68459;50.836;19.138;2024-03-17T00:02:22;98848.56;;;6.96;72.59
74975;BME280;68459;50.836;19.138;2024-03-17T00:05:25;98851.25;;;6.96;72.07
74975;BME280;68459;50.836;19.138;2024-03-17T00:08:28;98843.22;;;6.96;72.25
74975;BME280;68459;50.836;19.138;2024-03-17T00:11:31;98849.59;;;6.95;71.98
74975;BME280;68459;50.836;19.138;2024-03-17T00:14:35;98859.69;;;6.93;72.71
74975;BME280;68459;50.836;19.138;2024-03-17T00:17:38;98855.97;;;6.94;72.04
74975;BME280;68459;50.836;19.138;2024-03-17T00:20:41;98857.66;;;6.95;71.92
74975;BME280;68459;50.836;19.138;2024-03-17T00:23:43;98857.00;;;6.93;71.94
74975;BME280;68459;50.836;19.138;2024-03-17T00:26:45;98855.97;;;6.94;71.78
74975;BME280;68459;50.836;19.138;2024-03-17T00:29:49;98861.34;;;6.94;71.36
74975;BME280;68459;50.836;19.138;2024-03-17T00:32:51;98861.53;;;6.93;71.77
74975;BME280;68459;50.836;19.138;2024-03-17T00:35:54;98856.59;;;6.90;71.61
74975;BME280;68459;50.836;19.138;2024-03-17T00:38:57;98854.09;;;6.88;71.55
74975;BME280;68459;50.836;19.138;2024-03-17T00:42:01;98861.13;;;6.89;70.80
74975;BME280;68459;50.836;19.138;2024-03-17T00:45:05;98868.16;;;6.90;71.21
74975;BME280;68459;50.836;19.138;2024-03-17T00:48:08;98860.09;;;6.90;70.70
74975;BME280;68459;50.836;19.138;2024-03-17T00:51:11;98859.09;;;6.91;71.17
74975;BME280;68459;50.836;19.138;2024-03-17T00:54:13;98859.28;;;6.90;71.02
74975;BME280;68459;50.836;19.138;2024-03-17T00:57:16;98863.81;;;6.89;70.27
74975;BME280;68459;50.836;19.138;2024-03-17T01:00:19;98869.34;;;6.88;70.79
74975;BME280;68459;50.836;19.138;2024-03-17T01:03:22;98868.91;;;6.84;70.81
74975;BME280;68459;50.836;19.138;2024-03-17T01:06:25;98860.63;;;6.79;70.29
74975;BME280;68459;50.836;19.138;2024-03-17T01:09:26;98870.72;;;6.77;70.62
74975;BME280;68459;50.836;19.138;2024-03-17T01:12:29;98874.53;;;6.68;70.67
74975;BME280;68459;50.836;19.138;2024-03-17T01:15:32;98878.97;;;6.54;70.71
74975;BME280;68459;50.836;19.138;2024-03-17T01:18:36;98877.63;;;6.43;70.97
74975;BME280;68459;50.836;19.138;2024-03-17T01:21:38;98879.16;;;6.31;70.69
74975;BME280;68459;50.836;19.138;2024-03-17T01:24:41;98886.13;;;6.26;70.62
74975;BME280;68459;50.836;19.138;2024-03-17T01:27:47;98877.44;;;6.24;70.80
74975;BME280;68459;50.836;19.138;2024-03-17T01:30:50;98867.94;;;6.21;70.95
74975;BME280;68459;50.836;19.138;2024-03-17T01:33:52;98871.44;;;6.22;71.44
74975;BME280;68459;50.836;19.138;2024-03-17T01:36:55;98868.31;;;6.18;71.15
74975;BME280;68459;50.836;19.138;2024-03-17T01:39:57;98872.50;;;6.06;71.49
74975;BME280;68459;50.836;19.138;2024-03-17T01:43:00;98885.94;;;5.91;70.91
74975;BME280;68459;50.836;19.138;2024-03-17T01:46:04;98884.91;;;5.78;72.08
74975;BME280;68459;50.836;19.138;2024-03-17T01:49:07;98875.25;;;5.62;72.14
74975;BME280;68459;50.836;19.138;2024-03-17T01:52:09;98882.25;;;5.48;72.39
74975;BME280;68459;50.836;19.138;2024-03-17T01:55:12;98874.53;;;5.38;72.53
74975;BME280;68459;50.836;19.138;2024-03-17T01:58:15;98871.31;;;5.28;72.00
74975;BME280;68459;50.836;19.138;2024-03-17T02:01:21;98873.22;;;5.20;72.63
74975;BME280;68459;50.836;19.138;2024-03-17T02:04:23;98877.66;;;5.13;72.67
74975;BME280;68459;50.836;19.138;2024-03-17T02:07:26;98875.72;;;5.07;73.27
74975;BME280;68459;50.836;19.138;2024-03-17T02:10:29;98882.81;;;4.99;73.45
74975;BME280;68459;50.836;19.138;2024-03-17T02:13:31;98890.19;;;4.97;73.78
74975;BME280;68459;50.836;19.138;2024-03-17T02:16:35;98886.66;;;4.82;72.71
74975;BME280;68459;50.836;19.138;2024-03-17T02:19:38;98898.91;;;4.77;73.99
74975;BME280;68459;50.836;19.138;2024-03-17T02:22:41;98897.78;;;4.71;72.88
74975;BME280;68459;50.836;19.138;2024-03-17T02:25:44;98897.47;;;4.66;73.68
74975;BME280;68459;50.836;19.138;2024-03-17T02:28:48;98895.53;;;4.60;74.13
74975;BME280;68459;50.836;19.138;2024-03-17T02:31:50;98902.25;;;4.56;73.71
74975;BME280;68459;50.836;19.138;2024-03-17T02:34:53;98901.59;;;4.54;73.81
74975;BME280;68459;50.836;19.138;2024-03-17T02:37:57;98903.97;;;4.49;73.93
74975;BME280;68459;50.836;19.138;2024-03-17T02:41:00;98899.16;;;4.44;73.11
74975;BME280;68459;50.836;19.138;2024-03-17T02:44:02;98900.53;;;4.40;73.36
74975;BME280;68459;50.836;19.138;2024-03-17T02:47:05;98895.25;;;4.32;73.94
74975;BME280;68459;50.836;19.138;2024-03-17T02:50:10;98904.00;;;4.26;73.69
74975;BME280;68459;50.836;19.138;2024-03-17T02:53:13;98914.19;;;4.22;74.48
74975;BME280;68459;50.836;19.138;2024-03-17T02:56:17;98922.53;;;4.19;74.66
74975;BME280;68459;50.836;19.138;2024-03-17T02:59:21;98927.56;;;4.14;74.68
74975;BME280;68459;50.836;19.138;2024-03-17T03:02:24;98925.25;;;4.11;74.10
74975;BME280;68459;50.836;19.138;2024-03-17T03:05:26;98927.63;;;4.06;73.76
74975;BME280;68459;50.836;19.138;2024-03-17T03:08:30;98931.63;;;4.02;74.38
74975;BME280;68459;50.836;19.138;2024-03-17T03:11:33;98929.13;;;4.01;74.25
74975;BME280;68459;50.836;19.138;2024-03-17T03:14:36;98922.69;;;3.95;73.65
74975;BME280;68459;50.836;19.138;2024-03-17T03:17:39;98930.38;;;3.90;74.58
74975;BME280;68459;50.836;19.138;2024-03-17T03:20:42;98930.72;;;3.87;74.24
74975;BME280;68459;50.836;19.138;2024-03-17T03:23:47;98932.09;;;3.83;74.06
74975;BME280;68459;50.836;19.138;2024-03-17T03:26:50;98934.75;;;3.83;74.23
74975;BME280;68459;50.836;19.138;2024-03-17T03:29:52;98941.44;;;3.79;74.52
74975;BME280;68459;50.836;19.138;2024-03-17T03:32:57;98944.81;;;3.73;74.12
74975;BME280;68459;50.836;19.138;2024-03-17T03:36:07;98948.97;;;3.67;74.35
74975;BME280;68459;50.836;19.138;2024-03-17T03:39:13;98953.81;;;3.64;74.47
74975;BME280;68459;50.836;19.138;2024-03-17T03:42:15;98954.34;;;3.59;74.54
74975;BME280;68459;50.836;19.138;2024-03-17T03:45:19;98947.03;;;3.53;74.24
74975;BME280;68459;50.836;19.138;2024-03-17T03:48:22;98954.53;;;3.49;74.48
74975;BME280;68459;50.836;19.138;2024-03-17T03:51:25;98959.19;;;3.47;74.15
74975;BME280;68459;50.836;19.138;2024-03-17T03:54:28;98963.22;;;3.43;74.23
74975;BME280;68459;50.836;19.138;2024-03-17T03:57:31;98960.56;;;3.35;74.77
74975;BME280;68459;50.836;19.138;2024-03-17T04:00:34;98975.88;;;3.33;74.21
74975;BME280;68459;50.836;19.138;2024-03-17T04:03:40;98973.59;;;3.30;74.35
74975;BME280;68459;50.836;19.138;2024-03-17T04:06:43;98969.25;;;3.29;74.16
74975;BME280;68459;50.836;19.138;2024-03-17T04:09:47;98964.09;;;3.28;74.18
74975;BME280;68459;50.836;19.138;2024-03-17T04:12:50;98967.91;;;3.25;74.30
74975;BME280;68459;50.836;19.138;2024-03-17T04:15:53;98981.59;;;3.22;74.04
74975;BME280;68459;50.836;19.138;2024-03-17T04:18:57;98987.59;;;3.16;74.31
74975;BME280;68459;50.836;19.138;2024-03-17T04:22:00;98993.41;;;3.11;74.29
74975;BME280;68459;50.836;19.138;2024-03-17T04:25:05;98988.13;;;3.03;73.47
74975;BME280;68459;50.836;19.138;2024-03-17T04:28:08;98982.59;;;2.97;73.79
74975;BME280;68459;50.836;19.138;2024-03-17T04:31:11;98987.13;;;2.88;74.78
74975;BME280;68459;50.836;19.138;2024-03-17T04:34:14;99000.25;;;2.81;74.15
74975;BME280;68459;50.836;19.138;2024-03-17T04:37:18;98997.28;;;2.76;74.30
74975;BME280;68459;50.836;19.138;2024-03-17T04:40:22;98995.59;;;2.75;74.73
74975;BME280;68459;50.836;19.138;2024-03-17T04:43:25;99006.56;;;2.72;74.59
74975;BME280;68459;50.836;19.138;2024-03-17T04:46:28;99009.91;;;2.66;74.45
74975;BME280;68459;50.836;19.138;2024-03-17T04:49:31;99004.25;;;2.61;74.56
74975;BME280;68459;50.836;19.138;2024-03-17T04:52:35;99005.56;;;2.57;74.36
74975;BME280;68459;50.836;19.138;2024-03-17T04:55:39;99003.41;;;2.53;74.22
74975;BME280;68459;50.836;19.138;2024-03-17T04:58:42;98994.91;;;2.49;74.57
74975;BME280;68459;50.836;19.138;2024-03-17T05:01:44;99001.22;;;2.48;74.84
74975;BME280;68459;50.836;19.138;2024-03-17T05:04:47;99004.22;;;2.45;74.50
74975;BME280;68459;50.836;19.138;2024-03-17T05:07:50;99008.84;;;2.43;74.39
74975;BME280;68459;50.836;19.138;2024-03-17T05:10:57;99010.00;;;2.40;74.42
74975;BME280;68459;50.836;19.138;2024-03-17T05:14:00;99018.81;;;2.41;74.37
74975;BME280;68459;50.836;19.138;2024-03-17T05:17:03;99008.19;;;2.41;74.21
74975;BME280;68459;50.836;19.138;2024-03-17T05:20:06;99012.19;;;2.45;74.53
74975;BME280;68459;50.836;19.138;2024-03-17T05:23:12;99021.00;;;2.45;74.38
74975;BME280;68459;50.836;19.138;2024-03-17T05:26:16;99024.66;;;2.44;74.41
74975;BME280;68459;50.836;19.138;2024-03-17T05:29:19;99018.81;;;2.41;74.08
74975;BME280;68459;50.836;19.138;2024-03-17T05:32:23;99028.63;;;2.40;74.68
74975;BME280;68459;50.836;19.138;2024-03-17T05:35:27;99028.63;;;2.40;73.83
74975;BME280;68459;50.836;19.138;2024-03-17T05:38:30;99040.94;;;2.41;73.83
74975;BME280;68459;50.836;19.138;2024-03-17T05:41:35;99036.31;;;2.43;74.99
74975;BME280;68459;50.836;19.138;2024-03-17T05:44:37;99038.50;;;2.48;74.75
74975;BME280;68459;50.836;19.138;2024-03-17T05:47:51;99037.50;;;2.49;74.21
74975;BME280;68459;50.836;19.138;2024-03-17T05:50:53;99046.16;;;2.51;74.70
74975;BME280;68459;50.836;19.138;2024-03-17T05:53:57;99042.16;;;2.55;74.11
74975;BME280;68459;50.836;19.138;2024-03-17T05:57:01;99037.84;;;2.62;74.81
74975;BME280;68459;50.836;19.138;2024-03-17T06:00:07;99054.84;;;2.69;74.02
74975;BME280;68459;50.836;19.138;2024-03-17T06:03:12;99059.84;;;2.72;74.28
74975;BME280;68459;50.836;19.138;2024-03-17T06:06:16;99067.34;;;2.77;73.82
74975;BME280;68459;50.836;19.138;2024-03-17T06:09:18;99060.03;;;2.79;74.34
74975;BME280;68459;50.836;19.138;2024-03-17T06:12:23;99073.16;;;2.80;73.67
74975;BME280;68459;50.836;19.138;2024-03-17T06:15:26;99076.00;;;2.79;74.20
74975;BME280;68459;50.836;19.138;2024-03-17T06:18:30;99060.50;;;2.82;73.98
74975;BME280;68459;50.836;19.138;2024-03-17T06:21:33;99063.88;;;2.93;74.31
74975;BME280;68459;50.836;19.138;2024-03-17T06:24:36;99069.03;;;3.10;73.88
74975;BME280;68459;50.836;19.138;2024-03-17T06:27:40;99072.03;;;3.23;73.42
74975;BME280;68459;50.836;19.138;2024-03-17T06:30:44;99075.88;;;3.29;73.26
74975;BME280;68459;50.836;19.138;2024-03-17T06:33:49;99087.84;;;3.33;72.36
74975;BME280;68459;50.836;19.138;2024-03-17T06:36:52;99077.53;;;3.30;72.73
74975;BME280;68459;50.836;19.138;2024-03-17T06:39:54;99093.03;;;3.35;72.51
74975;BME280;68459;50.836;19.138;2024-03-17T06:42:59;99087.19;;;3.47;72.60
74975;BME280;68459;50.836;19.138;2024-03-17T06:46:01;99086.00;;;3.66;72.33
74975;BME280;68459;50.836;19.138;2024-03-17T06:49:05;99095.31;;;3.78;71.35
74975;BME280;68459;50.836;19.138;2024-03-17T06:52:08;99115.31;;;3.90;71.30
74975;BME280;68459;50.836;19.138;2024-03-17T06:55:11;99086.47;;;3.86;70.72
74975;BME280;68459;50.836;19.138;2024-03-17T06:58:15;99082.00;;;3.70;69.14
74975;BME280;68459;50.836;19.138;2024-03-17T07:01:21;99069.66;;;3.69;70.09
74975;BME280;68459;50.836;19.138;2024-03-17T07:04:24;99077.66;;;3.77;69.76
74975;BME280;68459;50.836;19.138;2024-03-17T07:07:27;99088.94;;;3.87;69.50
74975;BME280;68459;50.836;19.138;2024-03-17T07:10:30;99092.75;;;4.01;69.74
74975;BME280;68459;50.836;19.138;2024-03-17T07:13:36;99077.69;;;4.16;69.02
74975;BME280;68459;50.836;19.138;2024-03-17T07:16:39;99089.31;;;4.32;68.08
74975;BME280;68459;50.836;19.138;2024-03-17T07:19:42;99091.59;;;4.51;69.03
74975;BME280;68459;50.836;19.138;2024-03-17T07:22:45;99087.97;;;4.66;67.32
74975;BME280;68459;50.836;19.138;2024-03-17T07:25:52;99099.81;;;4.72;66.67
74975;BME280;68459;50.836;19.138;2024-03-17T07:28:57;99115.69;;;4.74;66.01
74975;BME280;68459;50.836;19.138;2024-03-17T07:32:00;99125.59;;;4.65;65.90
74975;BME280;68459;50.836;19.138;2024-03-17T07:35:03;99113.97;;;4.50;65.74
74975;BME280;68459;50.836;19.138;2024-03-17T07:38:06;99109.41;;;4.58;66.08
74975;BME280;68459;50.836;19.138;2024-03-17T07:41:09;99108.25;;;4.84;66.06
74975;BME280;68459;50.836;19.138;2024-03-17T07:44:13;99116.38;;;4.98;64.68
74975;BME280;68459;50.836;19.138;2024-03-17T07:47:16;99103.75;;;4.84;64.64
74975;BME280;68459;50.836;19.138;2024-03-17T07:50:19;99118.78;;;4.85;65.11
74975;BME280;68459;50.836;19.138;2024-03-17T07:53:21;99132.16;;;4.85;64.51
74975;BME280;68459;50.836;19.138;2024-03-17T07:56:25;99111.84;;;4.99;65.41
74975;BME280;68459;50.836;19.138;2024-03-17T07:59:29;99111.56;;;5.17;64.97
74975;BME280;68459;50.836;19.138;2024-03-17T08:02:32;99119.44;;;5.18;64.25
74975;BME280;68459;50.836;19.138;2024-03-17T08:05:35;99129.13;;;5.19;64.64
74975;BME280;68459;50.836;19.138;2024-03-17T08:08:38;99110.81;;;5.31;64.57
74975;BME280;68459;50.836;19.138;2024-03-17T08:11:41;99105.31;;;5.47;64.18
74975;BME280;68459;50.836;19.138;2024-03-17T08:14:49;99102.34;;;5.42;63.76
74975;BME280;68459;50.836;19.138;2024-03-17T08:17:51;99108.84;;;5.25;63.83
74975;BME280;68459;50.836;19.138;2024-03-17T08:20:55;99093.78;;;5.24;64.10
74975;BME280;68459;50.836;19.138;2024-03-17T08:23:57;99106.50;;;5.22;64.22
74975;BME280;68459;50.836;19.138;2024-03-17T08:27:00;99109.19;;;5.22;64.41
74975;BME280;68459;50.836;19.138;2024-03-17T08:30:06;99103.56;;;5.17;63.37
74975;BME280;68459;50.836;19.138;2024-03-17T08:33:11;99098.13;;;5.02;63.97
74975;BME280;68459;50.836;19.138;2024-03-17T08:36:16;99110.00;;;4.99;63.87
74975;BME280;68459;50.836;19.138;2024-03-17T08:39:20;99103.84;;;4.99;63.62
74975;BME280;68459;50.836;19.138;2024-03-17T08:42:24;99108.41;;;4.90;63.38
74975;BME280;68459;50.836;19.138;2024-03-17T08:45:28;99106.50;;;4.99;64.56
74975;BME280;68459;50.836;19.138;2024-03-17T08:48:33;99102.59;;;5.10;63.43
74975;BME280;68459;50.836;19.138;2024-03-17T08:51:37;99109.94;;;5.08;63.17
74975;BME280;68459;50.836;19.138;2024-03-17T08:54:40;99105.31;;;5.01;63.32
74975;BME280;68459;50.836;19.138;2024-03-17T08:57:43;99104.31;;;5.03;63.45
74975;BME280;68459;50.836;19.138;2024-03-17T09:00:47;99109.31;;;5.06;63.99
74975;BME280;68459;50.836;19.138;2024-03-17T09:03:50;99119.63;;;5.09;63.42
74975;BME280;68459;50.836;19.138;2024-03-17T09:06:55;99111.16;;;5.05;64.19
74975;BME280;68459;50.836;19.138;2024-03-17T09:09:58;99112.78;;;5.06;63.76
74975;BME280;68459;50.836;19.138;2024-03-17T09:13:01;99121.97;;;5.12;63.21
74975;BME280;68459;50.836;19.138;2024-03-17T09:16:06;99111.25;;;5.12;63.06
74975;BME280;68459;50.836;19.138;2024-03-17T09:19:12;99114.25;;;5.17;63.28
74975;BME280;68459;50.836;19.138;2024-03-17T09:22:14;99117.19;;;5.22;62.69
74975;BME280;68459;50.836;19.138;2024-03-17T09:25:17;99122.44;;;5.15;62.09
74975;BME280;68459;50.836;19.138;2024-03-17T09:28:20;99123.75;;;5.19;62.67
74975;BME280;68459;50.836;19.138;2024-03-17T09:31:24;99135.41;;;5.26;62.26
74975;BME280;68459;50.836;19.138;2024-03-17T09:34:27;99109.06;;;5.38;62.04
74975;BME280;68459;50.836;19.138;2024-03-17T09:37:29;99121.19;;;5.49;61.47
74975;BME280;68459;50.836;19.138;2024-03-17T09:40:32;99118.88;;;5.46;61.11
74975;BME280;68459;50.836;19.138;2024-03-17T09:43:36;99109.13;;;5.53;62.11
74975;BME280;68459;50.836;19.138;2024-03-17T09:46:41;99107.78;;;5.71;60.90
74975;BME280;68459;50.836;19.138;2024-03-17T09:49:43;99110.78;;;5.91;61.62
74975;BME280;68459;50.836;19.138;2024-03-17T09:52:46;99116.97;;;5.92;61.02
74975;BME280;68459;50.836;19.138;2024-03-17T09:55:49;99111.50;;;5.85;59.63
74975;BME280;68459;50.836;19.138;2024-03-17T09:58:52;99104.91;;;5.73;60.33
74975;BME280;68459;50.836;19.138;2024-03-17T10:01:57;99110.72;;;5.77;60.50
74975;BME280;68459;50.836;19.138;2024-03-17T10:05:00;99117.34;;;5.89;60.41
74975;BME280;68459;50.836;19.138;2024-03-17T10:08:03;99107.56;;;5.96;60.97
74975;BME280;68459;50.836;19.138;2024-03-17T10:11:06;99121.53;;;6.06;60.02
74975;BME280;68459;50.836;19.138;2024-03-17T10:14:09;99120.34;;;6.08;59.26
74975;BME280;68459;50.836;19.138;2024-03-17T10:17:29;99110.25;;;5.96;59.07
74975;BME280;68459;50.836;19.138;2024-03-17T10:20:32;99109.59;;;5.94;60.13
74975;BME280;68459;50.836;19.138;2024-03-17T10:23:35;99105.47;;;6.06;60.28
74975;BME280;68459;50.836;19.138;2024-03-17T10:26:41;99129.63;;;6.13;59.39
74975;BME280;68459;50.836;19.138;2024-03-17T10:29:45;99116.25;;;5.98;60.16
74975;BME280;68459;50.836;19.138;2024-03-17T10:32:57;99115.06;;;5.78;59.94
74975;BME280;68459;50.836;19.138;2024-03-17T10:36:01;99109.34;;;5.66;60.19
74975;BME280;68459;50.836;19.138;2024-03-17T10:39:20;99113.50;;;5.68;59.97
74975;BME280;68459;50.836;19.138;2024-03-17T10:42:30;99101.88;;;5.76;60.58
74975;BME280;68459;50.836;19.138;2024-03-17T10:45:35;99108.41;;;5.73;60.27
74975;BME280;68459;50.836;19.138;2024-03-17T10:48:41;99123.53;;;5.66;59.95
74975;BME280;68459;50.836;19.138;2024-03-17T10:51:46;99118.91;;;5.60;59.81
74975;BME280;68459;50.836;19.138;2024-03-17T10:54:51;99103.31;;;5.64;60.19
74975;BME280;68459;50.836;19.138;2024-03-17T10:57:55;99116.81;;;5.70;60.19
74975;BME280;68459;50.836;19.138;2024-03-17T11:01:00;99106.47;;;5.67;60.70
74975;BME280;68459;50.836;19.138;2024-03-17T11:04:05;99132.41;;;5.67;59.75
74975;BME280;68459;50.836;19.138;2024-03-17T11:07:16;99126.56;;;5.63;59.15
74975;BME280;68459;50.836;19.138;2024-03-17T11:10:22;99126.47;;;5.57;59.81
74975;BME280;68459;50.836;19.138;2024-03-17T11:13:27;99122.06;;;5.64;59.96
74975;BME280;68459;50.836;19.138;2024-03-17T11:16:30;99103.91;;;5.74;59.08
74975;BME280;68459;50.836;19.138;2024-03-17T11:19:34;99100.38;;;5.96;60.04
74975;BME280;68459;50.836;19.138;2024-03-17T11:22:43;99108.31;;;6.19;57.41
74975;BME280;68459;50.836;19.138;2024-03-17T11:25:51;99116.00;;;6.22;58.65
74975;BME280;68459;50.836;19.138;2024-03-17T11:28:54;99117.38;;;6.18;58.35
74975;BME280;68459;50.836;19.138;2024-03-17T11:31:59;99109.34;;;6.18;57.88
74975;BME280;68459;50.836;19.138;2024-03-17T11:35:14;99109.22;;;6.26;58.80
74975;BME280;68459;50.836;19.138;2024-03-17T11:38:50;99102.31;;;6.47;58.19
74975;BME280;68459;50.836;19.138;2024-03-17T11:41:52;99115.41;;;6.71;57.94
74975;BME280;68459;50.836;19.138;2024-03-17T11:44:59;99096.13;;;6.82;57.53
74975;BME280;68459;50.836;19.138;2024-03-17T11:48:12;99090.88;;;7.10;56.92
74975;BME280;68459;50.836;19.138;2024-03-17T11:51:17;99098.16;;;7.37;57.21
74975;BME280;68459;50.836;19.138;2024-03-17T11:54:21;99094.38;;;7.53;56.60
74975;BME280;68459;50.836;19.138;2024-03-17T11:57:26;99092.72;;;7.52;56.72
74975;BME280;68459;50.836;19.138;2024-03-17T12:00:29;99100.94;;;7.44;56.78
74975;BME280;68459;50.836;19.138;2024-03-17T12:03:31;99089.06;;;7.32;56.86
74975;BME280;68459;50.836;19.138;2024-03-17T12:06:36;99089.25;;;7.30;57.24
74975;BME280;68459;50.836;19.138;2024-03-17T12:09:38;99090.63;;;7.26;57.44
74975;BME280;68459;50.836;19.138;2024-03-17T12:12:41;99081.00;;;7.32;57.71
74975;BME280;68459;50.836;19.138;2024-03-17T12:15:43;99074.72;;;7.25;57.47
74975;BME280;68459;50.836;19.138;2024-03-17T12:18:47;99077.41;;;7.03;56.73
74975;BME280;68459;50.836;19.138;2024-03-17T12:21:51;99081.75;;;7.04;57.00
74975;BME280;68459;50.836;19.138;2024-03-17T12:24:55;99079.09;;;8.85;56.92
74975;BME280;68459;50.836;19.138;2024-03-17T12:28:00;99068.19;;;12.75;53.47
74975;BME280;68459;50.836;19.138;2024-03-17T12:31:05;99058.31;;;15.82;44.94
74975;BME280;68459;50.836;19.138;2024-03-17T12:34:07;99039.63;;;18.44;44.60
74975;BME280;68459;50.836;19.138;2024-03-17T12:37:16;99040.50;;;20.49;41.93
74975;BME280;68459;50.836;19.138;2024-03-17T12:40:22;99039.38;;;20.55;37.65
74975;BME280;68459;50.836;19.138;2024-03-17T12:43:24;99048.75;;;19.43;39.21
74975;BME280;68459;50.836;19.138;2024-03-17T12:46:28;99033.50;;;20.82;39.04
74975;BME280;68459;50.836;19.138;2024-03-17T12:49:32;99035.16;;;22.34;35.50
74975;BME280;68459;50.836;19.138;2024-03-17T12:52:37;99040.91;;;23.66;29.89
74975;BME280;68459;50.836;19.138;2024-03-17T12:55:40;99021.00;;;22.94;33.32
74975;BME280;68459;50.836;19.138;2024-03-17T12:59:05;99014.56;;;22.80;30.88
74975;BME280;68459;50.836;19.138;2024-03-17T13:02:25;99009.53;;;21.52;33.91
74975;BME280;68459;50.836;19.138;2024-03-17T13:05:29;99018.53;;;20.59;35.96
74975;BME280;68459;50.836;19.138;2024-03-17T13:08:34;99031.53;;;23.29;33.77
74975;BME280;68459;50.836;19.138;2024-03-17T13:11:37;99003.00;;;25.05;31.44
74975;BME280;68459;50.836;19.138;2024-03-17T13:14:40;98993.25;;;26.10;29.31
74975;BME280;68459;50.836;19.138;2024-03-17T13:17:43;99016.28;;;27.07;28.52
74975;BME280;68459;50.836;19.138;2024-03-17T13:20:46;99012.75;;;27.41;27.61
74975;BME280;68459;50.836;19.138;2024-03-17T13:23:52;99000.88;;;25.60;28.02
74975;BME280;68459;50.836;19.138;2024-03-17T13:26:55;99003.22;;;24.95;29.10
74975;BME280;68459;50.836;19.138;2024-03-17T13:30:00;98992.91;;;22.73;30.68
74975;BME280;68459;50.836;19.138;2024-03-17T13:33:04;99003.53;;;19.10;33.84
74975;BME280;68459;50.836;19.138;2024-03-17T13:36:09;98994.63;;;16.60;36.63
74975;BME280;68459;50.836;19.138;2024-03-17T13:39:14;98999.91;;;14.78;38.51
74975;BME280;68459;50.836;19.138;2024-03-17T13:42:20;99009.66;;;13.22;39.58
74975;BME280;68459;50.836;19.138;2024-03-17T13:45:25;99001.88;;;12.18;40.20
74975;BME280;68459;50.836;19.138;2024-03-17T13:48:36;99001.06;;;11.24;41.21
74975;BME280;68459;50.836;19.138;2024-03-17T13:51:39;99009.06;;;10.30;42.29
74975;BME280;68459;50.836;19.138;2024-03-17T13:54:44;99008.59;;;9.42;43.41
74975;BME280;68459;50.836;19.138;2024-03-17T13:57:49;99001.22;;;8.50;44.88
74975;BME280;68459;50.836;19.138;2024-03-17T14:00:53;98994.69;;;7.91;45.02
74975;BME280;68459;50.836;19.138;2024-03-17T14:03:56;98987.91;;;7.60;45.38
74975;BME280;68459;50.836;19.138;2024-03-17T14:06:59;98996.59;;;7.62;45.15
74975;BME280;68459;50.836;19.138;2024-03-17T14:10:04;98985.06;;;7.68;45.56
74975;BME280;68459;50.836;19.138;2024-03-17T14:13:09;98994.38;;;7.72;45.21
74975;BME280;68459;50.836;19.138;2024-03-17T14:16:12;98987.38;;;7.71;45.39
74975;BME280;68459;50.836;19.138;2024-03-17T14:19:15;98974.47;;;7.60;45.72
74975;BME280;68459;50.836;19.138;2024-03-17T14:22:19;98985.47;;;7.65;45.19
74975;BME280;68459;50.836;19.138;2024-03-17T14:25:23;98985.16;;;7.81;45.67
74975;BME280;68459;50.836;19.138;2024-03-17T14:28:27;98989.47;;;8.17;45.21
74975;BME280;68459;50.836;19.138;2024-03-17T14:31:30;98974.38;;;8.16;45.34
74975;BME280;68459;50.836;19.138;2024-03-17T14:34:35;98978.22;;;8.00;45.17
74975;BME280;68459;50.836;19.138;2024-03-17T14:37:39;98992.31;;;7.74;45.70
74975;BME280;68459;50.836;19.138;2024-03-17T14:40:45;98981.22;;;7.49;45.88
74975;BME280;68459;50.836;19.138;2024-03-17T14:43:47;98985.72;;;7.42;46.48
74975;BME280;68459;50.836;19.138;2024-03-17T14:46:51;98998.06;;;7.37;46.58
74975;BME280;68459;50.836;19.138;2024-03-17T14:49:53;98990.09;;;7.22;47.02
74975;BME280;68459;50.836;19.138;2024-03-17T14:52:56;98996.63;;;7.13;47.59
74975;BME280;68459;50.836;19.138;2024-03-17T14:56:00;98997.53;;;6.99;46.70
74975;BME280;68459;50.836;19.138;2024-03-17T14:59:03;98994.34;;;6.89;47.30
74975;BME280;68459;50.836;19.138;2024-03-17T15:02:07;99002.13;;;6.84;47.59
74975;BME280;68459;50.836;19.138;2024-03-17T15:05:11;98994.03;;;6.77;47.14
74975;BME280;68459;50.836;19.138;2024-03-17T15:08:15;99007.34;;;6.70;47.64
74975;BME280;68459;50.836;19.138;2024-03-17T15:11:19;98992.59;;;6.60;48.24
74975;BME280;68459;50.836;19.138;2024-03-17T15:14:22;98998.34;;;6.57;48.61
74975;BME280;68459;50.836;19.138;2024-03-17T15:17:25;99001.19;;;6.55;48.51
74975;BME280;68459;50.836;19.138;2024-03-17T15:20:29;99002.63;;;6.51;48.90
74975;BME280;68459;50.836;19.138;2024-03-17T15:23:32;99002.91;;;6.41;48.54
74975;BME280;68459;50.836;19.138;2024-03-17T15:26:36;99008.66;;;6.38;48.99
74975;BME280;68459;50.836;19.138;2024-03-17T15:29:40;99015.41;;;6.34;48.45
74975;BME280;68459;50.836;19.138;2024-03-17T15:32:42;99007.28;;;6.28;49.17
74975;BME280;68459;50.836;19.138;2024-03-17T15:35:45;99000.84;;;6.22;48.72
74975;BME280;68459;50.836;19.138;2024-03-17T15:38:50;99005.34;;;6.22;49.47
74975;BME280;68459;50.836;19.138;2024-03-17T15:41:54;99000.19;;;6.20;49.79
74975;BME280;68459;50.836;19.138;2024-03-17T15:44:57;99012.94;;;6.18;49.34
74975;BME280;68459;50.836;19.138;2024-03-17T15:48:00;99000.09;;;6.14;49.58
74975;BME280;68459;50.836;19.138;2024-03-17T15:51:03;99005.56;;;6.05;50.55
74975;BME280;68459;50.836;19.138;2024-03-17T15:54:07;98997.53;;;6.05;50.11
74975;BME280;68459;50.836;19.138;2024-03-17T15:57:11;99006.38;;;6.06;49.73
74975;BME280;68459;50.836;19.138;2024-03-17T16:00:15;99007.41;;;6.05;50.30
74975;BME280;68459;50.836;19.138;2024-03-17T16:03:19;99007.50;;;5.97;50.31
74975;BME280;68459;50.836;19.138;2024-03-17T16:06:25;98996.81;;;5.97;50.85
74975;BME280;68459;50.836;19.138;2024-03-17T16:09:27;99010.00;;;5.98;51.23
74975;BME280;68459;50.836;19.138;2024-03-17T16:12:31;99009.78;;;6.00;51.38
74975;BME280;68459;50.836;19.138;2024-03-17T16:15:35;99006.50;;;5.98;50.96